Dades meteomassalio
Diari Summary for Setembre 4, 2017 Units:  Metric    English   Both
« Previous Day
Next Day »
Diari Semanal Mensual Anual Personalitzat
  Maxima: Minima: Mijana:
Temperatura: 29.4 °C 11.7 °C 20.2 °C
Rosada: 17.6 °C 9.1 °C 13.4 °C
Humitat: 88 % 40 % 67 %
Velocitat del vent: 25.9 km/h 0.0 km/h 5.8 km/h
Racha vent: 25.9 km/h - -
Vent:- - SSE
Pressio: 1021.9 hPa 1013.4 hPa -
Pluja: 0.0 mm    
Historical Graphs
 
 
Tabular Data for Setembre 4, 2017
Time Temperature Dew Point Pressure Wind Wind Speed Wind Gust Humidity Rainfall Rate (Hourly) solar Conditions
00:01 16.7 °C 10.7 °C 1015.8 hPa Calm     68 % 0.0 mm 0.0 W/m2 RA
00:06 17.2 °C 11.9 °C 1016.1 hPa Calm     71 % 0.0 mm 0.0 W/m2 CLR
00:11 16.7 °C 12.2 °C 1016.1 hPa Calm     75 % 0.0 mm 0.0 W/m2 CLR
00:16 16.7 °C 12.8 °C 1016.1 hPa Calm     78 % 0.0 mm 0.0 W/m2 CLR
00:21 16.7 °C 13.0 °C 1016.1 hPa Calm     79 % 0.0 mm 0.0 W/m2 CLR
00:26 16.7 °C 13.0 °C 1015.8 hPa Calm     79 % 0.0 mm 0.0 W/m2 CLR
00:31 16.7 °C 13.2 °C 1015.8 hPa Calm     80 % 0.5 mm 0.0 W/m2 CLR
00:36 16.7 °C 13.6 °C 1015.8 hPa Calm     82 % 0.3 mm 0.0 W/m2 CLR
00:41 16.7 °C 13.6 °C 1015.8 hPa Calm     82 % 0.0 mm 0.0 W/m2 CLR
00:46 16.7 °C 13.6 °C 1015.8 hPa Calm     82 % 0.0 mm 0.0 W/m2 CLR
00:51 16.7 °C 13.4 °C 1015.8 hPa Calm     81 % 0.0 mm 0.0 W/m2 CLR
00:56 16.7 °C 13.6 °C 1015.8 hPa Calm     82 % 0.0 mm 0.0 W/m2 CLR
01:01 16.7 °C 13.8 °C 1015.5 hPa Calm     83 % 0.0 mm 0.0 W/m2 CLR
01:06 16.1 °C 13.2 °C 1015.5 hPa Calm     83 % 0.0 mm 0.0 W/m2 CLR
01:11 16.1 °C 12.4 °C 1015.5 hPa Calm     79 % 0.0 mm 0.0 W/m2 CLR
01:16 16.1 °C 10.8 °C 1015.5 hPa SE 13.0 km/h 13.0 km/h 71 % 0.0 mm 0.0 W/m2 CLR
01:21 16.1 °C 9.8 °C 1015.5 hPa SSE 13.0 km/h 13.0 km/h 66 % 0.0 mm 0.0 W/m2 CLR
01:23 16.1 °C 9.5 °C 1015.5 hPa SE 7.4 km/h 7.4 km/h 65 % 0.0 mm 0.0 W/m2 CLR
01:27 16.1 °C 9.5 °C 1015.1 hPa Calm     65 % 0.0 mm 0.0 W/m2 CLR
01:32 16.1 °C 9.1 °C 1015.5 hPa Calm     63 % 0.0 mm 0.0 W/m2 CLR
01:33 16.1 °C 9.1 °C 1015.5 hPa Calm     63 % 0.0 mm 0.0 W/m2 CLR
01:38 16.1 °C 10.0 °C 1015.5 hPa Calm     67 % 0.0 mm 0.0 W/m2 CLR
01:43 16.1 °C 10.2 °C 1015.5 hPa Calm     68 % 0.0 mm 0.0 W/m2 CLR
01:48 15.6 °C 10.3 °C 1015.1 hPa Calm     71 % 0.0 mm 0.0 W/m2 CLR
01:53 15.6 °C 10.9 °C 1015.1 hPa Calm     74 % 0.0 mm 0.0 W/m2 CLR
01:58 15.6 °C 11.2 °C 1015.1 hPa Calm     75 % 0.0 mm 0.0 W/m2 CLR
02:03 15.0 °C 10.8 °C 1015.1 hPa Calm     76 % 0.0 mm 0.0 W/m2 CLR
02:08 15.0 °C 10.4 °C 1014.8 hPa Calm     74 % 0.0 mm 0.0 W/m2 CLR
02:13 15.0 °C 10.4 °C 1014.8 hPa Calm     74 % 0.0 mm 0.0 W/m2 CLR
02:18 15.0 °C 10.6 °C 1014.8 hPa Calm     75 % 0.0 mm 0.0 W/m2 CLR
02:23 15.0 °C 10.6 °C 1014.8 hPa Calm     75 % 0.0 mm 0.0 W/m2 CLR
02:28 15.0 °C 10.6 °C 1014.8 hPa Calm     75 % 0.0 mm 0.0 W/m2 CLR
02:33 15.0 °C 10.4 °C 1014.4 hPa Calm     74 % 0.0 mm 0.0 W/m2 CLR
02:38 15.0 °C 11.2 °C 1014.4 hPa Calm     78 % 0.0 mm 0.0 W/m2 CLR
02:43 15.0 °C 11.4 °C 1014.4 hPa Calm     79 % 0.0 mm 0.0 W/m2 CLR
02:48 15.0 °C 10.6 °C 1014.4 hPa Calm     75 % 0.0 mm 0.0 W/m2 CLR
02:53 15.0 °C 10.6 °C 1014.4 hPa Calm     75 % 0.0 mm 0.0 W/m2 CLR
02:58 15.0 °C 10.6 °C 1014.4 hPa Calm     75 % 0.0 mm 0.0 W/m2 CLR
03:03 14.4 °C 10.1 °C 1014.4 hPa Calm     75 % 0.0 mm 0.0 W/m2 CLR
03:08 14.4 °C 9.9 °C 1014.4 hPa Calm     74 % 0.0 mm 0.0 W/m2 CLR
03:13 14.4 °C 10.7 °C 1014.4 hPa Calm     78 % 0.0 mm 0.0 W/m2 CLR
03:18 14.4 °C 10.7 °C 1014.4 hPa Calm     78 % 0.0 mm 0.0 W/m2 CLR
03:23 14.4 °C 10.8 °C 1014.4 hPa Calm     79 % 0.0 mm 0.0 W/m2 CLR
03:28 15.0 °C 11.2 °C 1014.4 hPa Calm     78 % 0.0 mm 0.0 W/m2 CLR
03:33 15.0 °C 11.2 °C 1014.4 hPa Calm     78 % 0.0 mm 0.0 W/m2 CLR
03:38 15.0 °C 10.8 °C 1014.4 hPa Calm     76 % 0.0 mm 0.0 W/m2 CLR
03:43 15.0 °C 10.8 °C 1014.4 hPa Calm     76 % 0.0 mm 0.0 W/m2 CLR
03:48 15.0 °C 10.8 °C 1014.1 hPa Calm     76 % 0.0 mm 0.0 W/m2 CLR
03:53 15.0 °C 10.6 °C 1014.1 hPa Calm     75 % 0.0 mm 0.0 W/m2 CLR
03:58 15.0 °C 10.8 °C 1014.1 hPa Calm     76 % 0.0 mm 0.0 W/m2 CLR
04:03 15.0 °C 10.6 °C 1014.1 hPa Calm     75 % 0.0 mm 0.0 W/m2 CLR
04:08 15.0 °C 11.0 °C 1014.1 hPa Calm     77 % 0.0 mm 0.0 W/m2 CLR
04:13 14.4 °C 10.7 °C 1013.8 hPa Calm     78 % 0.0 mm 0.0 W/m2 CLR
04:18 14.4 °C 10.7 °C 1013.8 hPa Calm     78 % 0.0 mm 0.0 W/m2 CLR
04:23 14.4 °C 10.7 °C 1013.8 hPa Calm     78 % 0.0 mm 0.0 W/m2 CLR
04:28 14.4 °C 10.4 °C 1013.8 hPa Calm     77 % 0.0 mm 0.0 W/m2 CLR
04:33 14.4 °C 10.3 °C 1013.8 hPa Calm     76 % 0.0 mm 0.0 W/m2 CLR
04:38 14.4 °C 10.4 °C 1013.8 hPa Calm     77 % 0.0 mm 0.0 W/m2 CLR
04:43 14.4 °C 10.3 °C 1013.8 hPa Calm     76 % 0.0 mm 0.0 W/m2 CLR
04:48 14.4 °C 11.1 °C 1013.8 hPa Calm     80 % 0.0 mm 0.0 W/m2 CLR
04:53 14.4 °C 11.2 °C 1013.8 hPa Calm     81 % 0.0 mm 0.0 W/m2 CLR
04:58 14.4 °C 11.4 °C 1013.8 hPa Calm     82 % 0.0 mm 0.0 W/m2 CLR
05:03 14.4 °C 11.6 °C 1013.8 hPa Calm     83 % 0.0 mm 0.0 W/m2 CLR
05:08 14.4 °C 11.6 °C 1013.8 hPa Calm     83 % 0.0 mm 0.0 W/m2 CLR
05:13 14.4 °C 11.2 °C 1013.8 hPa Calm     81 % 0.0 mm 0.0 W/m2 CLR
05:18 14.4 °C 11.2 °C 1013.4 hPa South 1.9 km/h   81 % 0.0 mm 0.0 W/m2 CLR
05:19 14.4 °C 11.2 °C 1013.4 hPa Calm     81 % 0.0 mm 0.0 W/m2 CLR
05:23 14.4 °C 11.2 °C 1013.8 hPa Calm     81 % 0.0 mm 0.0 W/m2 CLR
05:28 14.4 °C 11.1 °C 1013.4 hPa Calm     80 % 0.0 mm 0.0 W/m2 CLR
05:33 14.4 °C 10.8 °C 1013.4 hPa Calm     79 % 0.0 mm 0.0 W/m2 CLR
05:38 14.4 °C 10.8 °C 1013.4 hPa Calm     79 % 0.0 mm 0.0 W/m2 CLR
05:43 14.4 °C 11.1 °C 1013.4 hPa Calm     80 % 0.0 mm 0.0 W/m2 CLR
05:48 13.9 °C 10.5 °C 1013.8 hPa Calm     80 % 0.0 mm 0.0 W/m2 CLR
05:53 13.9 °C 10.7 °C 1013.8 hPa Calm     81 % 0.0 mm 0.0 W/m2 CLR
05:58 13.9 °C 10.9 °C 1013.8 hPa Calm     82 % 0.0 mm 0.0 W/m2 CLR
06:03 13.9 °C 10.9 °C 1013.8 hPa Calm     82 % 0.0 mm 0.0 W/m2 CLR
06:08 13.3 °C 10.2 °C 1013.8 hPa Calm     81 % 0.0 mm 0.0 W/m2 CLR
06:13 13.3 °C 10.2 °C 1013.8 hPa Calm     81 % 0.0 mm 0.0 W/m2 CLR
06:18 13.3 °C 10.2 °C 1013.8 hPa Calm     81 % 0.0 mm 0.0 W/m2 CLR
06:23 12.8 °C 9.6 °C 1013.8 hPa Calm     81 % 0.0 mm 0.0 W/m2 CLR
06:28 12.8 °C 9.6 °C 1013.8 hPa Calm     81 % 0.0 mm 0.0 W/m2 CLR
06:33 12.8 °C 9.8 °C 1013.8 hPa Calm     82 % 0.0 mm 0.0 W/m2 CLR
06:38 12.8 °C 9.8 °C 1013.8 hPa Calm     82 % 0.0 mm 0.0 W/m2 CLR
06:43 12.8 °C 9.9 °C 1013.8 hPa Calm     83 % 0.0 mm 0.0 W/m2 CLR
06:48 12.2 °C 9.6 °C 1013.8 hPa Calm     84 % 0.0 mm 0.0 W/m2 CLR
06:53 12.2 °C 9.6 °C 1013.8 hPa Calm     84 % 0.0 mm 0.0 W/m2 CLR
06:58 12.2 °C 9.8 °C 1013.8 hPa Calm     85 % 0.0 mm 0.0 W/m2 CLR
07:03 12.2 °C 9.8 °C 1013.8 hPa Calm     85 % 0.0 mm 0.0 W/m2 CLR
07:08 12.2 °C 9.8 °C 1013.8 hPa Calm     85 % 0.0 mm 0.0 W/m2 CLR
07:13 11.7 °C 9.2 °C 1013.8 hPa Calm     85 % 0.0 mm 0.0 W/m2 CLR
07:18 11.7 °C 9.4 °C 1013.8 hPa Calm     86 % 0.0 mm 0.0 W/m2 CLR
07:23 11.7 °C 9.4 °C 1014.1 hPa Calm     86 % 0.0 mm 0.0 W/m2 OVC
07:28 11.7 °C 9.4 °C 1014.1 hPa Calm     86 % 0.0 mm 0.0 W/m2 OVC
07:33 11.7 °C 9.4 °C 1014.1 hPa Calm     86 % 0.0 mm 0.0 W/m2 OVC
07:38 11.7 °C 9.6 °C 1014.4 hPa Calm     87 % 0.0 mm 7.0 W/m2 BKN
07:43 11.7 °C 9.6 °C 1014.4 hPa Calm     87 % 0.0 mm 11.0 W/m2 BKN
07:48 11.7 °C 9.6 °C 1014.8 hPa Calm     87 % 0.0 mm 12.0 W/m2 BKN
07:53 11.7 °C 9.6 °C 1014.8 hPa Calm     87 % 0.0 mm 18.0 W/m2 BKN
07:58 11.7 °C 9.6 °C 1014.8 hPa Calm     87 % 0.0 mm 21.0 W/m2 BKN
08:04 12.2 °C 10.1 °C 1014.8 hPa SSE 8.0 km/h 8.0 km/h 87 % 0.0 mm 28.0 W/m2 BKN
08:09 12.8 °C 10.7 °C 1014.8 hPa Calm     87 % 0.0 mm 39.0 W/m2 BKN
08:14 12.8 °C 10.8 °C 1014.8 hPa Calm     88 % 0.0 mm 39.0 W/m2 BKN
08:19 12.8 °C 10.8 °C 1015.1 hPa Calm     88 % 0.0 mm 54.0 W/m2 SCT
08:24 13.3 °C 11.4 °C 1015.1 hPa Calm     88 % 0.0 mm 60.0 W/m2 SCT
08:29 13.9 °C 11.8 °C 1015.1 hPa Calm     87 % 0.0 mm 62.0 W/m2 SCT
08:34 13.9 °C 11.8 °C 1015.1 hPa Calm     87 % 0.0 mm 120.0 W/m2 FEW
08:39 13.9 °C 11.6 °C 1015.5 hPa Calm     86 % 0.0 mm 69.0 W/m2 FEW
08:44 13.9 °C 11.8 °C 1015.5 hPa Calm     87 % 0.0 mm 98.0 W/m2 FEW
08:49 14.4 °C 12.3 °C 1015.5 hPa Calm     87 % 0.0 mm 95.0 W/m2 CLR
08:54 15.0 °C 12.7 °C 1015.5 hPa Calm     86 % 0.0 mm 200.0 W/m2 CLR
08:59 15.0 °C 12.5 °C 1015.5 hPa Calm     85 % 0.0 mm 105.0 W/m2 CLR
09:04 15.0 °C 12.3 °C 1015.5 hPa Calm     84 % 0.0 mm 63.0 W/m2 CLR
09:09 15.0 °C 12.1 °C 1015.5 hPa Calm     83 % 0.0 mm 236.0 W/m2 CLR
09:14 15.6 °C 12.5 °C 1015.5 hPa Calm     82 % 0.0 mm 246.0 W/m2 CLR
09:19 16.1 °C 12.7 °C 1015.8 hPa Calm     80 % 0.0 mm 262.0 W/m2 CLR
09:24 16.7 °C 12.6 °C 1015.8 hPa Calm     77 % 0.0 mm 279.0 W/m2 CLR
09:29 16.7 °C 12.2 °C 1015.8 hPa Calm     75 % 0.0 mm 294.0 W/m2 CLR
09:34 16.7 °C 11.8 °C 1015.8 hPa Calm     73 % 0.0 mm 306.0 W/m2 CLR
09:39 17.8 °C 12.7 °C 1015.8 hPa Calm     72 % 0.0 mm 315.0 W/m2 CLR
09:44 18.3 °C 13.0 °C 1016.1 hPa Calm     71 % 0.0 mm 338.0 W/m2 CLR
09:49 18.3 °C 12.1 °C 1016.1 hPa Calm     67 % 0.0 mm 352.0 W/m2 CLR
09:54 18.9 °C 12.8 °C 1016.1 hPa SSW 18.5 km/h 18.5 km/h 68 % 0.0 mm 366.0 W/m2 CLR
09:59 18.9 °C 13.3 °C 1016.5 hPa SSW 13.0 km/h 13.0 km/h 70 % 0.0 mm 380.0 W/m2 CLR
10:04 19.4 °C 13.8 °C 1016.5 hPa SSE 9.3 km/h 9.3 km/h 70 % 0.0 mm 394.0 W/m2 CLR
10:09 19.4 °C 13.8 °C 1016.5 hPa WSW 5.6 km/h 5.6 km/h 70 % 0.0 mm 410.0 W/m2 CLR
10:14 20.0 °C 14.8 °C 1016.8 hPa WSW 9.3 km/h 9.3 km/h 72 % 0.0 mm 425.0 W/m2 CLR
10:19 20.0 °C 15.0 °C 1016.8 hPa SSW 13.0 km/h 13.0 km/h 73 % 0.0 mm 441.0 W/m2 CLR
10:24 20.6 °C 14.9 °C 1016.8 hPa South 20.4 km/h 20.4 km/h 70 % 0.0 mm 455.0 W/m2 CLR
10:29 20.6 °C 14.7 °C 1016.8 hPa South 13.0 km/h 13.0 km/h 69 % 0.0 mm 471.0 W/m2 CLR
10:34 20.6 °C 14.7 °C 1016.8 hPa SSW 7.4 km/h 7.4 km/h 69 % 0.0 mm 487.0 W/m2 CLR
10:39 21.1 °C 14.7 °C 1016.8 hPa South 18.5 km/h 18.5 km/h 67 % 0.0 mm 497.0 W/m2 CLR
10:44 21.1 °C 14.5 °C 1016.8 hPa South 13.0 km/h 13.0 km/h 66 % 0.0 mm 512.0 W/m2 CLR
10:49 21.1 °C 14.5 °C 1017.2 hPa WSW 16.7 km/h 16.7 km/h 66 % 0.0 mm 531.0 W/m2 CLR
10:54 21.7 °C 14.6 °C 1017.2 hPa SSW 7.4 km/h 7.4 km/h 64 % 0.0 mm 543.0 W/m2 CLR
10:59 21.7 °C 14.8 °C 1017.2 hPa SSW 18.5 km/h 18.5 km/h 65 % 0.0 mm 557.0 W/m2 CLR
11:04 22.2 °C 15.1 °C 1017.2 hPa SW 11.1 km/h 11.1 km/h 64 % 0.0 mm 570.0 W/m2 CLR
11:09 22.2 °C 14.8 °C 1017.2 hPa SSW 16.1 km/h 16.1 km/h 63 % 0.0 mm 578.0 W/m2 CLR
11:14 22.2 °C 14.6 °C 1017.2 hPa SSW 20.4 km/h 20.4 km/h 62 % 0.0 mm 585.0 W/m2 CLR
11:19 22.8 °C 15.1 °C 1017.2 hPa South 22.2 km/h 22.2 km/h 62 % 0.0 mm 596.0 W/m2 CLR
11:24 22.8 °C 15.4 °C 1017.2 hPa SSW 25.9 km/h 25.9 km/h 63 % 0.0 mm 608.0 W/m2 CLR
11:29 22.8 °C 15.4 °C 1017.2 hPa SSW 14.5 km/h 14.5 km/h 63 % 0.0 mm 621.0 W/m2 CLR
11:34 23.3 °C 15.9 °C 1017.2 hPa SSE 14.8 km/h 14.8 km/h 63 % 0.0 mm 635.0 W/m2 CLR
11:39 23.3 °C 16.1 °C 1017.2 hPa SSW 12.9 km/h 12.9 km/h 64 % 0.0 mm 645.0 W/m2 CLR
11:44 23.3 °C 16.1 °C 1017.2 hPa South 16.1 km/h 16.1 km/h 64 % 0.0 mm 659.0 W/m2 CLR
11:49 23.3 °C 16.4 °C 1017.2 hPa WSW 16.7 km/h 16.7 km/h 65 % 0.0 mm 671.0 W/m2 CLR
11:54 23.3 °C 16.6 °C 1017.2 hPa SW 24.1 km/h 24.1 km/h 66 % 0.0 mm 675.0 W/m2 CLR
11:59 23.9 °C 16.9 °C 1017.5 hPa South 24.1 km/h 24.1 km/h 65 % 0.0 mm 686.0 W/m2 CLR
12:04 23.9 °C 16.7 °C 1017.5 hPa South 18.5 km/h 18.5 km/h 64 % 0.0 mm 701.0 W/m2 CLR
12:09 23.9 °C 16.9 °C 1017.5 hPa SSW 20.4 km/h 20.4 km/h 65 % 0.0 mm 710.0 W/m2 CLR
12:14 23.9 °C 16.9 °C 1017.5 hPa SSW 16.7 km/h 16.7 km/h 65 % 0.0 mm 703.0 W/m2 CLR
12:19 23.9 °C 16.9 °C 1017.2 hPa SW 25.9 km/h 25.9 km/h 65 % 0.0 mm 722.0 W/m2 CLR
12:24 24.4 °C 17.4 °C 1017.5 hPa SW 22.2 km/h 22.2 km/h 65 % 0.0 mm 737.0 W/m2 CLR
12:29 23.9 °C 16.7 °C 1017.5 hPa SW 18.5 km/h 18.5 km/h 64 % 0.0 mm 745.0 W/m2 CLR
12:34 24.4 °C 16.9 °C 1017.5 hPa SW 11.1 km/h 11.1 km/h 63 % 0.0 mm 749.0 W/m2 CLR
12:39 24.4 °C 17.2 °C 1017.5 hPa SSW 16.7 km/h 16.7 km/h 64 % 0.0 mm 752.0 W/m2 CLR
12:44 24.4 °C 16.9 °C 1017.5 hPa SW 20.9 km/h 20.9 km/h 63 % 0.0 mm 765.0 W/m2 CLR
12:49 24.4 °C 16.7 °C 1017.5 hPa SSW 14.8 km/h 14.8 km/h 62 % 0.0 mm 763.0 W/m2 CLR
12:54 24.4 °C 16.2 °C 1017.5 hPa SW 22.2 km/h 22.2 km/h 60 % 0.0 mm 775.0 W/m2 CLR
12:59 24.4 °C 16.4 °C 1017.5 hPa SW 16.7 km/h 16.7 km/h 61 % 0.0 mm 777.0 W/m2 CLR
13:04 24.4 °C 16.2 °C 1017.5 hPa SW 16.7 km/h 16.7 km/h 60 % 0.0 mm 780.0 W/m2 CLR
13:09 25.0 °C 16.7 °C 1017.5 hPa WSW 14.5 km/h 14.5 km/h 60 % 0.0 mm 789.0 W/m2 CLR
13:14 25.0 °C 16.2 °C 1017.5 hPa WSW 13.0 km/h 13.0 km/h 58 % 0.0 mm 796.0 W/m2 CLR
13:19 25.0 °C 16.2 °C 1017.5 hPa WSW 14.8 km/h 14.8 km/h 58 % 0.0 mm 800.0 W/m2 CLR
13:24 25.0 °C 15.6 °C 1017.5 hPa SW 11.1 km/h 11.1 km/h 56 % 0.0 mm 789.0 W/m2 CLR
13:29 25.6 °C 16.1 °C 1017.5 hPa SSW 18.5 km/h 18.5 km/h 56 % 0.0 mm 800.0 W/m2 CLR
13:34 25.6 °C 15.3 °C 1017.5 hPa SW 11.3 km/h 11.3 km/h 53 % 0.0 mm 805.0 W/m2 CLR
13:39 25.6 °C 14.9 °C 1017.5 hPa West 14.8 km/h 14.8 km/h 52 % 0.0 mm 805.0 W/m2 CLR
13:44 25.6 °C 14.9 °C 1017.5 hPa Calm     52 % 0.0 mm 807.0 W/m2 CLR
13:49 25.6 °C 14.7 °C 1017.5 hPa SSW 9.3 km/h 9.3 km/h 51 % 0.0 mm 810.0 W/m2 CLR
13:54 26.1 °C 15.2 °C 1017.5 hPa SW 11.1 km/h 11.1 km/h 51 % 0.0 mm 810.0 W/m2 CLR
13:59 26.7 °C 16.0 °C 1017.5 hPa SE 3.2 km/h 3.2 km/h 52 % 0.0 mm 814.0 W/m2 CLR
14:04 26.1 °C 14.6 °C 1017.5 hPa SSW 5.6 km/h 5.6 km/h 49 % 0.0 mm 814.0 W/m2 CLR
14:09 26.7 °C 15.1 °C 1017.5 hPa Calm     49 % 0.0 mm 812.0 W/m2 CLR
14:14 26.7 °C 14.4 °C 1017.5 hPa WSW 5.6 km/h   47 % 0.0 mm 809.0 W/m2 CLR
14:19 26.7 °C 14.4 °C 1017.5 hPa SSW 11.1 km/h 11.1 km/h 47 % 0.0 mm 814.0 W/m2 CLR
14:24 26.7 °C 14.7 °C 1017.8 hPa Calm     48 % 0.0 mm 812.0 W/m2 CLR
14:29 27.2 °C 14.6 °C 1017.8 hPa Calm     46 % 0.0 mm 805.0 W/m2 CLR
14:34 26.7 °C 14.7 °C 1017.8 hPa NW 5.6 km/h   48 % 0.0 mm 807.0 W/m2 CLR
14:39 26.7 °C 14.4 °C 1017.5 hPa WNW 11.1 km/h 11.1 km/h 47 % 0.0 mm 802.0 W/m2 CLR
14:45 26.7 °C 13.7 °C 1017.8 hPa West 14.8 km/h   45 % 0.0 mm 802.0 W/m2 CLR
14:50 27.2 °C 14.9 °C 1017.8 hPa WSW 5.6 km/h   47 % 0.0 mm 798.0 W/m2 CLR
14:51 27.2 °C 14.3 °C 1017.5 hPa WSW 1.6 km/h 1.6 km/h 45 % 0.0 mm 798.0 W/m2 CLR
14:56 27.2 °C 13.6 °C 1017.8 hPa Calm     43 % 0.0 mm 791.0 W/m2 CLR
15:01 27.2 °C 13.6 °C 1017.8 hPa ESE 9.3 km/h   43 % 0.0 mm 788.0 W/m2 CLR
15:06 27.8 °C 14.4 °C 1017.5 hPa Calm     44 % 0.0 mm 780.0 W/m2 CLR
15:11 27.2 °C 13.6 °C 1017.5 hPa Calm     43 % 0.0 mm 773.0 W/m2 CLR
15:16 27.2 °C 13.9 °C 1017.5 hPa NNW 9.3 km/h 9.3 km/h 44 % 0.0 mm 770.0 W/m2 CLR
15:21 27.2 °C 13.6 °C 1017.5 hPa Calm     43 % 0.0 mm 763.0 W/m2 CLR
15:26 27.2 °C 14.3 °C 1017.5 hPa Calm     45 % 0.0 mm 758.0 W/m2 CLR
15:31 27.8 °C 13.7 °C 1017.5 hPa Calm     42 % 0.0 mm 747.0 W/m2 CLR
15:36 28.3 °C 14.2 °C 1017.5 hPa WSW 3.7 km/h 3.7 km/h 42 % 0.0 mm 742.0 W/m2 CLR
15:41 27.8 °C 13.3 °C 1017.5 hPa Calm     41 % 0.0 mm 731.0 W/m2 CLR
15:46 27.8 °C 14.1 °C 1017.5 hPa Calm     43 % 0.0 mm 719.0 W/m2 CLR
15:52 27.8 °C 14.1 °C 1017.5 hPa ENE 6.4 km/h 6.4 km/h 43 % 0.0 mm 710.0 W/m2 CLR
15:57 28.3 °C 14.9 °C 1017.5 hPa Calm     44 % 0.0 mm 703.0 W/m2 CLR
16:02 27.2 °C 13.9 °C 1017.5 hPa Calm     44 % 0.0 mm 691.0 W/m2 CLR
16:07 28.3 °C 15.3 °C 1017.5 hPa Calm     45 % 0.0 mm 687.0 W/m2 CLR
16:11 28.3 °C 14.6 °C 1017.2 hPa Calm     43 % 0.0 mm 677.0 W/m2 CLR
16:17 28.3 °C 14.2 °C 1017.2 hPa West 1.9 km/h   42 % 0.0 mm 668.0 W/m2 CLR
16:22 28.3 °C 14.2 °C 1017.2 hPa Calm     42 % 0.0 mm 654.0 W/m2 CLR
16:27 28.9 °C 14.7 °C 1017.2 hPa Calm     42 % 0.0 mm 645.0 W/m2 CLR
16:32 28.9 °C 14.7 °C 1017.2 hPa Calm     42 % 0.0 mm 631.0 W/m2 CLR
16:37 28.9 °C 14.7 °C 1017.2 hPa NW 3.7 km/h   42 % 0.0 mm 626.0 W/m2 CLR
16:42 28.9 °C 14.3 °C 1017.2 hPa Calm     41 % 0.0 mm 615.0 W/m2 CLR
16:47 28.3 °C 14.2 °C 1017.2 hPa North 3.7 km/h 3.7 km/h 42 % 0.0 mm 601.0 W/m2 CLR
16:52 28.3 °C 13.8 °C 1017.2 hPa Calm     41 % 0.0 mm 591.0 W/m2 CLR
16:57 28.3 °C 14.2 °C 1017.2 hPa ENE 9.3 km/h 9.3 km/h 42 % 0.0 mm 577.0 W/m2 CLR
17:02 28.3 °C 14.2 °C 1017.2 hPa North 7.4 km/h 7.4 km/h 42 % 0.0 mm 566.0 W/m2 CLR
17:07 28.3 °C 14.6 °C 1017.2 hPa NNW 3.7 km/h 3.7 km/h 43 % 0.0 mm 555.0 W/m2 CLR
17:12 28.3 °C 14.6 °C 1017.2 hPa NW 7.4 km/h 7.4 km/h 43 % 0.0 mm 543.0 W/m2 CLR
17:17 28.9 °C 14.7 °C 1017.2 hPa NNW 9.7 km/h 9.7 km/h 42 % 0.0 mm 536.0 W/m2 CLR
17:22 28.9 °C 14.7 °C 1017.2 hPa Calm     42 % 0.0 mm 526.0 W/m2 CLR
17:27 28.9 °C 14.3 °C 1017.2 hPa Calm     41 % 0.0 mm 515.0 W/m2 CLR
17:32 28.9 °C 14.3 °C 1017.2 hPa Calm     41 % 0.0 mm 503.0 W/m2 CLR
17:37 29.4 °C 14.4 °C 1017.2 hPa Calm     40 % 0.0 mm 496.0 W/m2 CLR
17:42 28.9 °C 13.9 °C 1017.2 hPa Calm     40 % 0.0 mm 485.0 W/m2 CLR
17:47 28.9 °C 16.1 °C 1017.2 hPa ENE 1.9 km/h 1.9 km/h 46 % 0.0 mm 483.0 W/m2 CLR
17:52 28.3 °C 16.6 °C 1017.2 hPa ENE 16.7 km/h 16.7 km/h 49 % 0.0 mm 461.0 W/m2 CLR
17:57 28.3 °C 16.6 °C 1017.5 hPa NE 14.8 km/h 14.8 km/h 49 % 0.0 mm 445.0 W/m2 CLR
18:02 27.8 °C 16.4 °C 1017.5 hPa NE 14.8 km/h 14.8 km/h 50 % 0.0 mm 424.0 W/m2 CLR
18:07 27.8 °C 16.7 °C 1017.5 hPa East 18.5 km/h 18.5 km/h 51 % 0.0 mm 397.0 W/m2 CLR
18:12 28.3 °C 17.2 °C 1017.5 hPa ENE 18.5 km/h 18.5 km/h 51 % 0.0 mm 366.0 W/m2 CLR
18:17 27.8 °C 17.0 °C 1017.5 hPa ENE 18.5 km/h 18.5 km/h 52 % 0.0 mm 350.0 W/m2 CLR
18:22 27.8 °C 17.3 °C 1017.8 hPa ENE 20.4 km/h 20.4 km/h 53 % 0.0 mm 332.0 W/m2 CLR
18:27 27.8 °C 17.6 °C 1017.8 hPa ENE 18.5 km/h 18.5 km/h 54 % 0.0 mm 63.0 W/m2 CLR
18:32 27.2 °C 17.4 °C 1017.8 hPa ENE 22.5 km/h 22.5 km/h 55 % 0.0 mm 200.0 W/m2 FEW
18:37 27.2 °C 17.4 °C 1017.8 hPa East 18.5 km/h 18.5 km/h 55 % 0.0 mm 278.0 W/m2 CLR
18:42 26.7 °C 17.2 °C 1017.8 hPa NE 18.5 km/h 18.5 km/h 56 % 0.0 mm 264.0 W/m2 CLR
18:47 26.7 °C 17.2 °C 1018.2 hPa NE 18.5 km/h 18.5 km/h 56 % 0.0 mm 246.0 W/m2 CLR
18:52 26.1 °C 16.9 °C 1018.2 hPa East 20.9 km/h 20.9 km/h 57 % 0.0 mm 49.0 W/m2 FEW
18:57 26.1 °C 16.9 °C 1018.2 hPa ENE 18.5 km/h 18.5 km/h 57 % 0.0 mm 207.0 W/m2 FEW
19:02 26.1 °C 16.7 °C 1018.2 hPa ENE 18.5 km/h 18.5 km/h 56 % 0.0 mm 192.0 W/m2 CLR
19:07 26.1 °C 16.4 °C 1018.2 hPa East 18.5 km/h 18.5 km/h 55 % 0.0 mm 172.0 W/m2 CLR
19:08 26.1 °C 16.4 °C 1018.2 hPa East 18.5 km/h 18.5 km/h 55 % 0.0 mm 165.0 W/m2 CLR
19:13 25.6 °C 16.1 °C 1018.2 hPa ENE 16.7 km/h 16.7 km/h 56 % 0.0 mm 149.0 W/m2 CLR
19:18 25.6 °C 16.1 °C 1018.2 hPa ENE 22.2 km/h 22.2 km/h 56 % 0.0 mm 134.0 W/m2 CLR
19:23 25.6 °C 16.4 °C 1018.5 hPa ESE 13.0 km/h 13.0 km/h 57 % 0.0 mm 114.0 W/m2 CLR
19:28 25.6 °C 16.4 °C 1018.5 hPa East 22.2 km/h 22.2 km/h 57 % 0.0 mm 100.0 W/m2 CLR
19:33 25.6 °C 16.7 °C 1018.5 hPa ENE 17.7 km/h 17.7 km/h 58 % 0.0 mm 83.0 W/m2 FEW
19:38 25.0 °C 16.2 °C 1018.5 hPa ENE 16.7 km/h 16.7 km/h 58 % 0.0 mm 70.0 W/m2 FEW
19:43 25.0 °C 16.4 °C 1018.5 hPa ENE 18.5 km/h 18.5 km/h 59 % 0.0 mm 56.0 W/m2 SCT
19:48 25.0 °C 16.7 °C 1018.8 hPa ENE 16.1 km/h 16.1 km/h 60 % 0.0 mm 47.0 W/m2 SCT
19:53 24.4 °C 16.4 °C 1018.5 hPa East 14.8 km/h 14.8 km/h 61 % 0.0 mm 33.0 W/m2 BKN
19:58 24.4 °C 16.4 °C 1018.8 hPa ENE 16.1 km/h 16.1 km/h 61 % 0.0 mm 26.0 W/m2 BKN
20:03 24.4 °C 16.7 °C 1018.8 hPa ENE 14.8 km/h 14.8 km/h 62 % 0.0 mm 19.0 W/m2 BKN
20:08 24.4 °C 16.7 °C 1018.8 hPa East 13.0 km/h 13.0 km/h 62 % 0.0 mm 16.0 W/m2 BKN
20:13 23.9 °C 16.2 °C 1019.2 hPa ENE 11.1 km/h 11.1 km/h 62 % 0.0 mm 12.0 W/m2 BKN
20:18 23.9 °C 16.2 °C 1019.2 hPa ENE 13.0 km/h 13.0 km/h 62 % 0.0 mm 9.0 W/m2 BKN
20:23 23.3 °C 15.7 °C 1019.2 hPa NE 8.0 km/h 8.0 km/h 62 % 0.0 mm 5.0 W/m2 BKN
20:29 23.3 °C 15.9 °C 1019.2 hPa ENE 9.3 km/h 9.3 km/h 63 % 0.0 mm 0.0 W/m2 OVC
20:34 22.8 °C 15.4 °C 1019.2 hPa NE 5.6 km/h 6.3 km/h 63 % 0.0 mm 0.0 W/m2 OVC
20:39 22.8 °C 15.6 °C 1019.5 hPa ENE 3.7 km/h 4.8 km/h 64 % 0.0 mm 0.0 W/m2 CLR
20:44 22.8 °C 15.6 °C 1019.5 hPa Calm     64 % 0.0 mm 0.0 W/m2 CLR
20:49 22.2 °C 15.3 °C 1019.5 hPa East 8.0 km/h 9.0 km/h 65 % 0.0 mm 0.0 W/m2 CLR
20:54 22.2 °C 15.3 °C 1019.5 hPa East 13.0 km/h 13.0 km/h 65 % 0.0 mm 0.0 W/m2 CLR
20:59 21.7 °C 15.1 °C 1019.5 hPa ENE 9.3 km/h 9.3 km/h 66 % 0.0 mm 0.0 W/m2 CLR
21:04 21.7 °C 15.1 °C 1019.5 hPa East 13.0 km/h 13.0 km/h 66 % 0.0 mm 0.0 W/m2 CLR
21:09 21.7 °C 15.1 °C 1019.5 hPa East 9.3 km/h 9.3 km/h 66 % 0.0 mm 0.0 W/m2 CLR
21:14 21.7 °C 15.3 °C 1019.9 hPa East 9.7 km/h 9.7 km/h 67 % 0.0 mm 0.0 W/m2 CLR
21:19 21.7 °C 15.3 °C 1019.9 hPa ENE 13.0 km/h 13.0 km/h 67 % 0.0 mm 0.0 W/m2 CLR
21:24 21.1 °C 14.7 °C 1019.9 hPa ENE 9.7 km/h 9.7 km/h 67 % 0.0 mm 0.0 W/m2 CLR
21:29 21.1 °C 15.0 °C 1020.2 hPa ENE 5.6 km/h   68 % 0.0 mm 0.0 W/m2 CLR
21:34 20.6 °C 14.4 °C 1020.2 hPa Calm     68 % 0.0 mm 0.0 W/m2 CLR
21:39 20.0 °C 14.1 °C 1020.2 hPa East 5.6 km/h   69 % 0.0 mm 0.0 W/m2 CLR
21:45 20.0 °C 14.3 °C 1020.2 hPa Calm   1.1 km/h 70 % 0.0 mm 0.0 W/m2 CLR
21:50 19.4 °C 13.8 °C 1020.5 hPa ENE 9.3 km/h 9.3 km/h 70 % 0.0 mm 0.0 W/m2 CLR
21:55 19.4 °C 13.8 °C 1020.5 hPa ENE 9.7 km/h 9.7 km/h 70 % 0.0 mm 0.0 W/m2 CLR
22:00 19.4 °C 13.8 °C 1020.5 hPa ENE 11.1 km/h 11.1 km/h 70 % 0.0 mm 0.0 W/m2 CLR
22:05 19.4 °C 14.1 °C 1020.5 hPa ENE 11.1 km/h 11.1 km/h 71 % 0.0 mm 0.0 W/m2 CLR
22:10 19.4 °C 14.1 °C 1020.5 hPa East 13.0 km/h 13.0 km/h 71 % 0.0 mm 0.0 W/m2 CLR
22:15 19.4 °C 14.1 °C 1020.5 hPa ENE 4.8 km/h 4.8 km/h 71 % 0.0 mm 0.0 W/m2 CLR
22:20 19.4 °C 14.3 °C 1020.5 hPa ENE 13.0 km/h 13.0 km/h 72 % 0.0 mm 0.0 W/m2 CLR
22:25 19.4 °C 14.3 °C 1020.9 hPa Calm     72 % 0.0 mm 0.0 W/m2 CLR
22:30 19.4 °C 14.3 °C 1020.9 hPa Calm     72 % 0.0 mm 0.0 W/m2 CLR
22:35 18.9 °C 13.7 °C 1020.9 hPa Calm     72 % 0.0 mm 0.0 W/m2 CLR
22:36 18.9 °C 13.7 °C 1020.9 hPa Calm     72 % 0.0 mm 0.0 W/m2 CLR
22:41 18.9 °C 13.7 °C 1020.9 hPa Calm     72 % 0.0 mm 0.0 W/m2 CLR
22:46 18.9 °C 13.7 °C 1020.9 hPa Calm     72 % 0.0 mm 0.0 W/m2 CLR
22:51 18.9 °C 13.9 °C 1021.2 hPa Calm     73 % 0.0 mm 0.0 W/m2 CLR
22:56 18.3 °C 13.6 °C 1021.2 hPa Calm     74 % 0.0 mm 0.0 W/m2 CLR
23:01 18.3 °C 13.6 °C 1021.6 hPa Calm     74 % 0.0 mm 0.0 W/m2 CLR
23:06 18.3 °C 13.8 °C 1021.6 hPa Calm     75 % 0.0 mm 0.0 W/m2 CLR
23:11 17.8 °C 13.3 °C 1021.6 hPa Calm     75 % 0.0 mm 0.0 W/m2 CLR
23:16 17.8 °C 13.3 °C 1021.6 hPa Calm     75 % 0.0 mm 0.0 W/m2 CLR
23:21 17.8 °C 13.3 °C 1021.6 hPa Calm     75 % 0.0 mm 0.0 W/m2 CLR
23:26 17.8 °C 13.3 °C 1021.6 hPa Calm     75 % 0.0 mm 0.0 W/m2 CLR
23:31 17.8 °C 13.5 °C 1021.6 hPa Calm     76 % 0.0 mm 0.0 W/m2 CLR
23:36 17.2 °C 13.3 °C 1021.6 hPa Calm     78 % 0.0 mm 0.0 W/m2 CLR
23:41 17.2 °C 13.3 °C 1021.6 hPa Calm     78 % 0.0 mm 0.0 W/m2 CLR
23:46 17.2 °C 13.3 °C 1021.6 hPa Calm     78 % 0.0 mm 0.0 W/m2 CLR
23:51 17.2 °C 13.3 °C 1021.9 hPa Calm     78 % 0.0 mm 0.0 W/m2 CLR
23:56 17.2 °C 13.3 °C 1021.9 hPa Calm     78 % 0.0 mm 0.0 W/m2 CLR
Lo Temps de Massalio
Compliments of Weather Underground - 1.25 mb